sensor_id;sensor_type;location;lat;lon;timestamp;P1;durP1;ratioP1;P2;durP2;ratioP2
16450;SDS011;12243;42.708;23.310;2023-01-15T00:02:04;25.53;;;15.37;;
16450;SDS011;12243;42.708;23.310;2023-01-15T00:04:31;25.30;;;15.60;;
16450;SDS011;12243;42.708;23.310;2023-01-15T00:06:58;27.27;;;16.37;;
16450;SDS011;12243;42.708;23.310;2023-01-15T00:09:25;24.13;;;16.03;;
16450;SDS011;12243;42.708;23.310;2023-01-15T00:11:53;25.13;;;16.30;;
16450;SDS011;12243;42.708;23.310;2023-01-15T00:14:20;23.77;;;15.70;;
16450;SDS011;12243;42.708;23.310;2023-01-15T00:16:49;21.97;;;15.23;;
16450;SDS011;12243;42.708;23.310;2023-01-15T00:19:16;22.07;;;15.20;;
16450;SDS011;12243;42.708;23.310;2023-01-15T00:21:43;22.93;;;15.53;;
16450;SDS011;12243;42.708;23.310;2023-01-15T00:24:10;23.87;;;14.80;;
16450;SDS011;12243;42.708;23.310;2023-01-15T00:26:55;27.13;;;15.67;;
16450;SDS011;12243;42.708;23.310;2023-01-15T00:29:45;25.40;;;14.77;;
16450;SDS011;12243;42.708;23.310;2023-01-15T00:32:12;26.03;;;15.20;;
16450;SDS011;12243;42.708;23.310;2023-01-15T00:34:39;24.33;;;16.13;;
16450;SDS011;12243;42.708;23.310;2023-01-15T00:37:05;23.33;;;15.53;;
16450;SDS011;12243;42.708;23.310;2023-01-15T00:39:32;22.97;;;15.53;;
16450;SDS011;12243;42.708;23.310;2023-01-15T00:42:01;21.10;;;15.53;;
16450;SDS011;12243;42.708;23.310;2023-01-15T00:44:30;28.80;;;16.90;;
16450;SDS011;12243;42.708;23.310;2023-01-15T00:46:57;27.63;;;17.10;;
16450;SDS011;12243;42.708;23.310;2023-01-15T00:49:24;26.07;;;15.83;;
16450;SDS011;12243;42.708;23.310;2023-01-15T00:51:51;23.33;;;15.53;;
16450;SDS011;12243;42.708;23.310;2023-01-15T00:54:18;23.27;;;15.43;;
16450;SDS011;12243;42.708;23.310;2023-01-15T00:56:45;21.37;;;15.30;;
16450;SDS011;12243;42.708;23.310;2023-01-15T00:59:13;22.07;;;15.73;;
16450;SDS011;12243;42.708;23.310;2023-01-15T01:01:41;22.83;;;15.67;;
16450;SDS011;12243;42.708;23.310;2023-01-15T01:04:07;25.50;;;16.37;;
16450;SDS011;12243;42.708;23.310;2023-01-15T01:06:34;20.90;;;15.03;;
16450;SDS011;12243;42.708;23.310;2023-01-15T01:09:01;21.50;;;15.33;;
16450;SDS011;12243;42.708;23.310;2023-01-15T01:11:29;21.33;;;15.13;;
16450;SDS011;12243;42.708;23.310;2023-01-15T01:13:58;22.17;;;14.67;;
16450;SDS011;12243;42.708;23.310;2023-01-15T01:16:29;21.57;;;15.07;;
16450;SDS011;12243;42.708;23.310;2023-01-15T01:18:58;21.70;;;15.00;;
16450;SDS011;12243;42.708;23.310;2023-01-15T01:21:27;21.53;;;14.77;;
16450;SDS011;12243;42.708;23.310;2023-01-15T01:23:56;20.90;;;14.60;;
16450;SDS011;12243;42.708;23.310;2023-01-15T01:26:23;20.50;;;14.53;;
16450;SDS011;12243;42.708;23.310;2023-01-15T01:28:51;21.03;;;13.57;;
16450;SDS011;12243;42.708;23.310;2023-01-15T01:31:18;21.47;;;14.27;;
16450;SDS011;12243;42.708;23.310;2023-01-15T01:33:48;18.87;;;13.37;;
16450;SDS011;12243;42.708;23.310;2023-01-15T01:36:15;18.63;;;12.47;;
16450;SDS011;12243;42.708;23.310;2023-01-15T01:38:43;17.17;;;12.13;;
16450;SDS011;12243;42.708;23.310;2023-01-15T01:41:13;20.00;;;13.60;;
16450;SDS011;12243;42.708;23.310;2023-01-15T01:43:54;18.40;;;12.73;;
16450;SDS011;12243;42.708;23.310;2023-01-15T01:46:24;19.77;;;13.33;;
16450;SDS011;12243;42.708;23.310;2023-01-15T01:48:55;20.03;;;12.90;;
16450;SDS011;12243;42.708;23.310;2023-01-15T01:51:25;17.97;;;12.67;;
16450;SDS011;12243;42.708;23.310;2023-01-15T01:53:55;20.10;;;12.63;;
16450;SDS011;12243;42.708;23.310;2023-01-15T01:56:23;17.17;;;12.23;;
16450;SDS011;12243;42.708;23.310;2023-01-15T01:58:51;19.73;;;12.97;;
16450;SDS011;12243;42.708;23.310;2023-01-15T02:01:20;17.43;;;12.30;;
16450;SDS011;12243;42.708;23.310;2023-01-15T02:03:50;16.07;;;11.37;;
16450;SDS011;12243;42.708;23.310;2023-01-15T02:06:19;17.37;;;11.67;;
16450;SDS011;12243;42.708;23.310;2023-01-15T02:08:50;16.10;;;11.90;;
16450;SDS011;12243;42.708;23.310;2023-01-15T02:11:18;17.03;;;11.80;;
16450;SDS011;12243;42.708;23.310;2023-01-15T02:13:49;17.23;;;12.53;;
16450;SDS011;12243;42.708;23.310;2023-01-15T02:16:23;16.60;;;11.90;;
16450;SDS011;12243;42.708;23.310;2023-01-15T02:18:55;17.70;;;12.20;;
16450;SDS011;12243;42.708;23.310;2023-01-15T02:21:30;17.43;;;12.60;;
16450;SDS011;12243;42.708;23.310;2023-01-15T02:24:13;16.03;;;12.13;;
16450;SDS011;12243;42.708;23.310;2023-01-15T02:29:52;16.90;;;11.67;;
16450;SDS011;12243;42.708;23.310;2023-01-15T02:32:29;17.03;;;12.07;;
16450;SDS011;12243;42.708;23.310;2023-01-15T02:35:01;16.57;;;12.20;;
16450;SDS011;12243;42.708;23.310;2023-01-15T02:37:33;16.30;;;11.57;;
16450;SDS011;12243;42.708;23.310;2023-01-15T02:40:05;18.27;;;12.13;;
16450;SDS011;12243;42.708;23.310;2023-01-15T02:42:35;18.90;;;11.37;;
16450;SDS011;12243;42.708;23.310;2023-01-15T02:45:05;17.23;;;11.73;;
16450;SDS011;12243;42.708;23.310;2023-01-15T02:47:37;19.50;;;11.67;;
16450;SDS011;12243;42.708;23.310;2023-01-15T02:50:10;17.70;;;12.07;;
16450;SDS011;12243;42.708;23.310;2023-01-15T02:52:41;18.10;;;11.07;;
16450;SDS011;12243;42.708;23.310;2023-01-15T02:55:16;17.07;;;11.70;;
16450;SDS011;12243;42.708;23.310;2023-01-15T02:57:48;15.30;;;11.30;;
16450;SDS011;12243;42.708;23.310;2023-01-15T03:00:18;16.47;;;10.93;;
16450;SDS011;12243;42.708;23.310;2023-01-15T03:02:49;16.80;;;10.93;;
16450;SDS011;12243;42.708;23.310;2023-01-15T03:05:21;16.20;;;11.20;;
16450;SDS011;12243;42.708;23.310;2023-01-15T03:07:53;18.90;;;12.80;;
16450;SDS011;12243;42.708;23.310;2023-01-15T03:10:26;23.17;;;12.03;;
16450;SDS011;12243;42.708;23.310;2023-01-15T03:13:02;15.97;;;11.57;;
16450;SDS011;12243;42.708;23.310;2023-01-15T03:15:58;16.20;;;11.33;;
16450;SDS011;12243;42.708;23.310;2023-01-15T03:18:50;19.27;;;12.50;;
16450;SDS011;12243;42.708;23.310;2023-01-15T03:21:22;18.40;;;12.30;;
16450;SDS011;12243;42.708;23.310;2023-01-15T03:23:53;17.17;;;11.90;;
16450;SDS011;12243;42.708;23.310;2023-01-15T03:26:25;16.87;;;12.10;;
16450;SDS011;12243;42.708;23.310;2023-01-15T03:28:54;17.60;;;11.90;;
16450;SDS011;12243;42.708;23.310;2023-01-15T03:31:22;16.73;;;12.47;;
16450;SDS011;12243;42.708;23.310;2023-01-15T03:33:49;19.23;;;12.67;;
16450;SDS011;12243;42.708;23.310;2023-01-15T03:36:19;17.33;;;12.50;;
16450;SDS011;12243;42.708;23.310;2023-01-15T03:38:47;19.23;;;13.03;;
16450;SDS011;12243;42.708;23.310;2023-01-15T03:41:45;17.57;;;12.43;;
16450;SDS011;12243;42.708;23.310;2023-01-15T03:44:24;17.63;;;11.60;;
16450;SDS011;12243;42.708;23.310;2023-01-15T03:47:02;16.60;;;11.73;;
16450;SDS011;12243;42.708;23.310;2023-01-15T03:49:38;16.37;;;12.23;;
16450;SDS011;12243;42.708;23.310;2023-01-15T03:52:37;17.67;;;12.03;;
16450;SDS011;12243;42.708;23.310;2023-01-15T03:55:10;18.07;;;12.23;;
16450;SDS011;12243;42.708;23.310;2023-01-15T03:57:48;16.73;;;11.60;;
16450;SDS011;12243;42.708;23.310;2023-01-15T04:00:21;15.90;;;12.50;;
16450;SDS011;12243;42.708;23.310;2023-01-15T04:02:56;16.73;;;12.07;;
16450;SDS011;12243;42.708;23.310;2023-01-15T04:05:28;18.53;;;12.23;;
16450;SDS011;12243;42.708;23.310;2023-01-15T04:07:57;17.07;;;11.20;;
16450;SDS011;12243;42.708;23.310;2023-01-15T04:10:25;15.53;;;11.20;;
16450;SDS011;12243;42.708;23.310;2023-01-15T04:12:55;17.97;;;12.57;;
16450;SDS011;12243;42.708;23.310;2023-01-15T04:15:23;17.20;;;12.17;;
16450;SDS011;12243;42.708;23.310;2023-01-15T04:17:50;15.63;;;12.10;;
16450;SDS011;12243;42.708;23.310;2023-01-15T04:20:17;15.93;;;11.07;;
16450;SDS011;12243;42.708;23.310;2023-01-15T04:22:45;16.73;;;12.10;;
16450;SDS011;12243;42.708;23.310;2023-01-15T04:25:12;15.37;;;12.10;;
16450;SDS011;12243;42.708;23.310;2023-01-15T04:27:38;16.97;;;12.10;;
16450;SDS011;12243;42.708;23.310;2023-01-15T04:30:06;15.03;;;11.83;;
16450;SDS011;12243;42.708;23.310;2023-01-15T04:32:35;18.00;;;12.20;;
16450;SDS011;12243;42.708;23.310;2023-01-15T04:35:02;18.37;;;12.03;;
16450;SDS011;12243;42.708;23.310;2023-01-15T04:37:29;16.13;;;11.27;;
16450;SDS011;12243;42.708;23.310;2023-01-15T04:39:56;14.10;;;10.63;;
16450;SDS011;12243;42.708;23.310;2023-01-15T04:42:22;16.03;;;11.20;;
16450;SDS011;12243;42.708;23.310;2023-01-15T04:45:07;16.97;;;11.10;;
16450;SDS011;12243;42.708;23.310;2023-01-15T04:47:36;15.57;;;11.23;;
16450;SDS011;12243;42.708;23.310;2023-01-15T04:50:03;15.80;;;11.10;;
16450;SDS011;12243;42.708;23.310;2023-01-15T04:52:30;14.17;;;10.17;;
16450;SDS011;12243;42.708;23.310;2023-01-15T04:54:57;16.20;;;11.83;;
16450;SDS011;12243;42.708;23.310;2023-01-15T04:57:23;15.30;;;11.57;;
16450;SDS011;12243;42.708;23.310;2023-01-15T04:59:50;12.63;;;9.47;;
16450;SDS011;12243;42.708;23.310;2023-01-15T05:02:17;14.33;;;10.97;;
16450;SDS011;12243;42.708;23.310;2023-01-15T05:04:45;12.87;;;9.57;;
16450;SDS011;12243;42.708;23.310;2023-01-15T05:07:12;12.80;;;9.47;;
16450;SDS011;12243;42.708;23.310;2023-01-15T05:09:39;11.83;;;9.07;;
16450;SDS011;12243;42.708;23.310;2023-01-15T05:12:06;13.00;;;10.17;;
16450;SDS011;12243;42.708;23.310;2023-01-15T05:14:33;14.73;;;10.73;;
16450;SDS011;12243;42.708;23.310;2023-01-15T05:17:00;12.83;;;9.87;;
16450;SDS011;12243;42.708;23.310;2023-01-15T05:19:27;13.93;;;10.17;;
16450;SDS011;12243;42.708;23.310;2023-01-15T05:21:55;11.43;;;9.57;;
16450;SDS011;12243;42.708;23.310;2023-01-15T05:24:22;15.37;;;9.80;;
16450;SDS011;12243;42.708;23.310;2023-01-15T05:26:49;10.17;;;7.90;;
16450;SDS011;12243;42.708;23.310;2023-01-15T05:29:16;10.53;;;7.67;;
16450;SDS011;12243;42.708;23.310;2023-01-15T05:31:42;9.93;;;7.87;;
16450;SDS011;12243;42.708;23.310;2023-01-15T05:34:10;10.10;;;8.13;;
16450;SDS011;12243;42.708;23.310;2023-01-15T05:36:37;11.70;;;8.47;;
16450;SDS011;12243;42.708;23.310;2023-01-15T05:39:06;9.93;;;8.40;;
16450;SDS011;12243;42.708;23.310;2023-01-15T05:41:33;10.13;;;8.27;;
16450;SDS011;12243;42.708;23.310;2023-01-15T05:44:16;12.00;;;9.13;;
16450;SDS011;12243;42.708;23.310;2023-01-15T05:46:45;13.57;;;8.57;;
16450;SDS011;12243;42.708;23.310;2023-01-15T05:49:13;9.83;;;8.40;;
16450;SDS011;12243;42.708;23.310;2023-01-15T05:51:41;13.50;;;9.33;;
16450;SDS011;12243;42.708;23.310;2023-01-15T05:54:11;10.67;;;8.17;;
16450;SDS011;12243;42.708;23.310;2023-01-15T05:56:40;12.37;;;9.07;;
16450;SDS011;12243;42.708;23.310;2023-01-15T05:59:07;11.80;;;8.70;;
16450;SDS011;12243;42.708;23.310;2023-01-15T06:01:34;13.07;;;9.67;;
16450;SDS011;12243;42.708;23.310;2023-01-15T06:04:01;12.07;;;8.33;;
16450;SDS011;12243;42.708;23.310;2023-01-15T06:06:30;11.33;;;8.90;;
16450;SDS011;12243;42.708;23.310;2023-01-15T06:08:57;11.47;;;8.90;;
16450;SDS011;12243;42.708;23.310;2023-01-15T06:11:25;12.63;;;10.07;;
16450;SDS011;12243;42.708;23.310;2023-01-15T06:13:52;12.97;;;9.73;;
16450;SDS011;12243;42.708;23.310;2023-01-15T06:16:19;12.07;;;9.33;;
16450;SDS011;12243;42.708;23.310;2023-01-15T06:18:46;11.67;;;8.73;;
16450;SDS011;12243;42.708;23.310;2023-01-15T06:21:13;12.67;;;9.20;;
16450;SDS011;12243;42.708;23.310;2023-01-15T06:23:40;13.83;;;10.00;;
16450;SDS011;12243;42.708;23.310;2023-01-15T06:26:10;14.80;;;10.43;;
16450;SDS011;12243;42.708;23.310;2023-01-15T06:28:39;15.40;;;10.40;;
16450;SDS011;12243;42.708;23.310;2023-01-15T06:31:06;14.60;;;10.33;;
16450;SDS011;12243;42.708;23.310;2023-01-15T06:33:34;12.27;;;9.23;;
16450;SDS011;12243;42.708;23.310;2023-01-15T06:36:02;15.57;;;9.57;;
16450;SDS011;12243;42.708;23.310;2023-01-15T06:38:29;11.60;;;9.10;;
16450;SDS011;12243;42.708;23.310;2023-01-15T06:40:57;13.73;;;9.90;;
16450;SDS011;12243;42.708;23.310;2023-01-15T06:43:25;13.87;;;9.60;;
16450;SDS011;12243;42.708;23.310;2023-01-15T06:46:10;14.23;;;9.30;;
16450;SDS011;12243;42.708;23.310;2023-01-15T06:48:55;27.07;;;15.80;;
16450;SDS011;12243;42.708;23.310;2023-01-15T06:51:22;36.03;;;19.13;;
16450;SDS011;12243;42.708;23.310;2023-01-15T06:53:49;24.97;;;16.53;;
16450;SDS011;12243;42.708;23.310;2023-01-15T06:56:16;23.50;;;16.23;;
16450;SDS011;12243;42.708;23.310;2023-01-15T06:58:43;25.83;;;16.97;;
16450;SDS011;12243;42.708;23.310;2023-01-15T07:01:12;29.73;;;18.97;;
16450;SDS011;12243;42.708;23.310;2023-01-15T07:03:40;32.23;;;21.63;;
16450;SDS011;12243;42.708;23.310;2023-01-15T07:06:08;33.10;;;21.30;;
16450;SDS011;12243;42.708;23.310;2023-01-15T07:08:36;29.23;;;19.87;;
16450;SDS011;12243;42.708;23.310;2023-01-15T07:11:04;29.67;;;20.60;;
16450;SDS011;12243;42.708;23.310;2023-01-15T07:13:33;33.73;;;22.17;;
16450;SDS011;12243;42.708;23.310;2023-01-15T07:16:01;32.57;;;22.90;;
16450;SDS011;12243;42.708;23.310;2023-01-15T07:18:31;36.63;;;23.83;;
16450;SDS011;12243;42.708;23.310;2023-01-15T07:20:58;35.47;;;23.13;;
16450;SDS011;12243;42.708;23.310;2023-01-15T07:23:26;32.17;;;21.23;;
16450;SDS011;12243;42.708;23.310;2023-01-15T07:25:54;31.10;;;21.63;;
16450;SDS011;12243;42.708;23.310;2023-01-15T07:28:22;31.47;;;20.87;;
16450;SDS011;12243;42.708;23.310;2023-01-15T07:30:49;32.80;;;21.53;;
16450;SDS011;12243;42.708;23.310;2023-01-15T07:33:16;27.83;;;20.50;;
16450;SDS011;12243;42.708;23.310;2023-01-15T07:35:44;33.30;;;20.43;;
16450;SDS011;12243;42.708;23.310;2023-01-15T07:38:11;28.50;;;18.77;;
16450;SDS011;12243;42.708;23.310;2023-01-15T07:40:38;31.93;;;21.00;;
16450;SDS011;12243;42.708;23.310;2023-01-15T07:43:05;30.20;;;20.03;;
16450;SDS011;12243;42.708;23.310;2023-01-15T07:45:49;37.27;;;20.23;;
16450;SDS011;12243;42.708;23.310;2023-01-15T07:48:34;28.53;;;15.90;;
16450;SDS011;12243;42.708;23.310;2023-01-15T07:51:20;20.93;;;13.57;;
16450;SDS011;12243;42.708;23.310;2023-01-15T07:53:46;18.57;;;13.47;;
16450;SDS011;12243;42.708;23.310;2023-01-15T07:56:13;18.87;;;14.03;;
16450;SDS011;12243;42.708;23.310;2023-01-15T07:58:40;19.40;;;14.10;;
16450;SDS011;12243;42.708;23.310;2023-01-15T08:01:13;21.40;;;15.53;;
16450;SDS011;12243;42.708;23.310;2023-01-15T08:03:40;22.03;;;16.00;;
16450;SDS011;12243;42.708;23.310;2023-01-15T08:06:06;22.90;;;15.73;;
16450;SDS011;12243;42.708;23.310;2023-01-15T08:08:35;24.80;;;17.43;;
16450;SDS011;12243;42.708;23.310;2023-01-15T08:11:01;19.80;;;14.90;;
16450;SDS011;12243;42.708;23.310;2023-01-15T08:13:48;19.47;;;14.97;;
16450;SDS011;12243;42.708;23.310;2023-01-15T08:16:34;22.37;;;14.37;;
16450;SDS011;12243;42.708;23.310;2023-01-15T08:19:01;23.17;;;15.40;;
16450;SDS011;12243;42.708;23.310;2023-01-15T08:21:28;26.80;;;16.73;;
16450;SDS011;12243;42.708;23.310;2023-01-15T08:23:56;18.43;;;13.43;;
16450;SDS011;12243;42.708;23.310;2023-01-15T08:26:23;21.83;;;15.13;;
16450;SDS011;12243;42.708;23.310;2023-01-15T08:28:50;18.87;;;14.50;;
16450;SDS011;12243;42.708;23.310;2023-01-15T08:31:17;25.30;;;15.63;;
16450;SDS011;12243;42.708;23.310;2023-01-15T08:33:44;23.93;;;16.13;;
16450;SDS011;12243;42.708;23.310;2023-01-15T08:36:11;22.33;;;17.03;;
16450;SDS011;12243;42.708;23.310;2023-01-15T08:38:37;19.83;;;15.90;;
16450;SDS011;12243;42.708;23.310;2023-01-15T08:41:06;23.53;;;15.80;;
16450;SDS011;12243;42.708;23.310;2023-01-15T08:43:33;17.93;;;13.77;;
16450;SDS011;12243;42.708;23.310;2023-01-15T08:46:00;18.43;;;13.90;;
16450;SDS011;12243;42.708;23.310;2023-01-15T08:48:29;15.13;;;11.00;;
16450;SDS011;12243;42.708;23.310;2023-01-15T08:50:57;14.43;;;12.17;;
16450;SDS011;12243;42.708;23.310;2023-01-15T08:53:24;14.63;;;10.73;;
16450;SDS011;12243;42.708;23.310;2023-01-15T08:55:53;13.47;;;9.63;;
16450;SDS011;12243;42.708;23.310;2023-01-15T08:58:21;13.30;;;10.13;;
16450;SDS011;12243;42.708;23.310;2023-01-15T09:00:48;16.30;;;12.63;;
16450;SDS011;12243;42.708;23.310;2023-01-15T09:03:15;14.60;;;11.60;;
16450;SDS011;12243;42.708;23.310;2023-01-15T09:05:42;20.23;;;13.20;;
16450;SDS011;12243;42.708;23.310;2023-01-15T09:08:09;20.60;;;13.30;;
16450;SDS011;12243;42.708;23.310;2023-01-15T09:10:35;16.83;;;12.70;;
16450;SDS011;12243;42.708;23.310;2023-01-15T09:13:03;16.70;;;11.47;;
16450;SDS011;12243;42.708;23.310;2023-01-15T09:15:31;14.13;;;11.07;;
16450;SDS011;12243;42.708;23.310;2023-01-15T09:18:02;19.90;;;12.60;;
16450;SDS011;12243;42.708;23.310;2023-01-15T09:20:29;21.67;;;12.27;;
16450;SDS011;12243;42.708;23.310;2023-01-15T09:22:55;15.43;;;11.77;;
16450;SDS011;12243;42.708;23.310;2023-01-15T09:25:22;16.77;;;12.13;;
16450;SDS011;12243;42.708;23.310;2023-01-15T09:27:54;15.53;;;13.10;;
16450;SDS011;12243;42.708;23.310;2023-01-15T09:30:21;19.13;;;12.77;;
16450;SDS011;12243;42.708;23.310;2023-01-15T09:32:49;17.90;;;12.67;;
16450;SDS011;12243;42.708;23.310;2023-01-15T09:35:16;21.43;;;13.97;;
16450;SDS011;12243;42.708;23.310;2023-01-15T09:37:46;16.10;;;13.03;;
16450;SDS011;12243;42.708;23.310;2023-01-15T09:40:19;16.37;;;12.70;;
16450;SDS011;12243;42.708;23.310;2023-01-15T09:42:56;21.10;;;15.87;;
16450;SDS011;12243;42.708;23.310;2023-01-15T09:45:29;24.17;;;18.97;;
16450;SDS011;12243;42.708;23.310;2023-01-15T09:48:09;22.47;;;15.90;;
16450;SDS011;12243;42.708;23.310;2023-01-15T09:50:47;18.70;;;14.37;;
16450;SDS011;12243;42.708;23.310;2023-01-15T09:53:31;16.83;;;13.60;;
16450;SDS011;12243;42.708;23.310;2023-01-15T09:56:17;21.10;;;15.20;;
16450;SDS011;12243;42.708;23.310;2023-01-15T09:58:47;29.53;;;17.33;;
16450;SDS011;12243;42.708;23.310;2023-01-15T10:01:17;23.47;;;16.73;;
16450;SDS011;12243;42.708;23.310;2023-01-15T10:03:48;27.97;;;17.97;;
16450;SDS011;12243;42.708;23.310;2023-01-15T10:06:20;23.40;;;17.60;;
16450;SDS011;12243;42.708;23.310;2023-01-15T10:08:50;27.23;;;17.73;;
16450;SDS011;12243;42.708;23.310;2023-01-15T10:11:30;41.43;;;25.70;;
16450;SDS011;12243;42.708;23.310;2023-01-15T10:14:29;31.33;;;20.53;;
16450;SDS011;12243;42.708;23.310;2023-01-15T10:17:03;23.13;;;16.33;;
16450;SDS011;12243;42.708;23.310;2023-01-15T10:19:41;26.43;;;17.57;;
16450;SDS011;12243;42.708;23.310;2023-01-15T10:22:09;23.30;;;16.40;;
16450;SDS011;12243;42.708;23.310;2023-01-15T10:24:47;22.83;;;15.37;;
16450;SDS011;12243;42.708;23.310;2023-01-15T10:27:21;23.50;;;16.43;;
16450;SDS011;12243;42.708;23.310;2023-01-15T10:29:51;24.90;;;15.60;;
16450;SDS011;12243;42.708;23.310;2023-01-15T10:32:27;21.57;;;15.57;;
16450;SDS011;12243;42.708;23.310;2023-01-15T10:35:22;18.43;;;13.37;;
16450;SDS011;12243;42.708;23.310;2023-01-15T10:37:58;18.77;;;14.13;;
16450;SDS011;12243;42.708;23.310;2023-01-15T10:40:38;17.30;;;13.37;;
16450;SDS011;12243;42.708;23.310;2023-01-15T10:43:16;15.10;;;11.33;;
16450;SDS011;12243;42.708;23.310;2023-01-15T10:45:48;15.67;;;11.30;;
16450;SDS011;12243;42.708;23.310;2023-01-15T10:48:22;16.50;;;12.30;;
16450;SDS011;12243;42.708;23.310;2023-01-15T10:50:57;16.70;;;12.83;;
16450;SDS011;12243;42.708;23.310;2023-01-15T10:53:28;17.37;;;12.23;;
16450;SDS011;12243;42.708;23.310;2023-01-15T10:56:02;21.67;;;13.83;;
16450;SDS011;12243;42.708;23.310;2023-01-15T10:58:35;16.93;;;12.73;;
16450;SDS011;12243;42.708;23.310;2023-01-15T11:01:05;16.40;;;12.03;;
16450;SDS011;12243;42.708;23.310;2023-01-15T11:03:37;16.43;;;12.07;;
16450;SDS011;12243;42.708;23.310;2023-01-15T11:06:11;26.43;;;16.77;;
16450;SDS011;12243;42.708;23.310;2023-01-15T11:08:40;20.37;;;14.67;;
16450;SDS011;12243;42.708;23.310;2023-01-15T11:11:16;17.47;;;13.03;;
16450;SDS011;12243;42.708;23.310;2023-01-15T11:16:34;19.60;;;13.93;;
16450;SDS011;12243;42.708;23.310;2023-01-15T11:19:23;21.27;;;13.67;;
16450;SDS011;12243;42.708;23.310;2023-01-15T11:22:15;21.43;;;14.03;;
16450;SDS011;12243;42.708;23.310;2023-01-15T11:24:47;19.00;;;14.20;;
16450;SDS011;12243;42.708;23.310;2023-01-15T11:27:16;17.70;;;12.93;;
16450;SDS011;12243;42.708;23.310;2023-01-15T11:29:49;12.60;;;10.83;;
16450;SDS011;12243;42.708;23.310;2023-01-15T11:32:19;15.63;;;11.73;;
16450;SDS011;12243;42.708;23.310;2023-01-15T11:34:54;15.37;;;10.80;;
16450;SDS011;12243;42.708;23.310;2023-01-15T11:37:23;16.90;;;11.53;;
16450;SDS011;12243;42.708;23.310;2023-01-15T11:39:54;19.00;;;14.13;;
16450;SDS011;12243;42.708;23.310;2023-01-15T11:42:22;23.77;;;15.70;;
16450;SDS011;12243;42.708;23.310;2023-01-15T11:45:14;25.17;;;16.57;;
16450;SDS011;12243;42.708;23.310;2023-01-15T11:48:00;16.13;;;12.20;;
16450;SDS011;12243;42.708;23.310;2023-01-15T11:50:49;14.87;;;11.20;;
16450;SDS011;12243;42.708;23.310;2023-01-15T11:53:20;16.30;;;12.03;;
16450;SDS011;12243;42.708;23.310;2023-01-15T11:55:51;14.50;;;11.73;;
16450;SDS011;12243;42.708;23.310;2023-01-15T11:58:20;14.77;;;11.13;;
16450;SDS011;12243;42.708;23.310;2023-01-15T12:00:49;13.37;;;10.07;;
16450;SDS011;12243;42.708;23.310;2023-01-15T12:03:19;13.63;;;10.40;;
16450;SDS011;12243;42.708;23.310;2023-01-15T12:05:53;11.53;;;9.40;;
16450;SDS011;12243;42.708;23.310;2023-01-15T12:08:27;11.07;;;9.77;;
16450;SDS011;12243;42.708;23.310;2023-01-15T12:11:05;10.90;;;9.60;;
16450;SDS011;12243;42.708;23.310;2023-01-15T12:13:43;14.73;;;10.57;;
16450;SDS011;12243;42.708;23.310;2023-01-15T12:16:22;13.13;;;10.17;;
16450;SDS011;12243;42.708;23.310;2023-01-15T12:18:55;12.47;;;10.67;;
16450;SDS011;12243;42.708;23.310;2023-01-15T12:21:32;14.93;;;11.20;;
16450;SDS011;12243;42.708;23.310;2023-01-15T12:27:45;11.77;;;9.27;;
16450;SDS011;12243;42.708;23.310;2023-01-15T12:30:20;12.47;;;9.00;;
16450;SDS011;12243;42.708;23.310;2023-01-15T12:32:57;10.30;;;8.83;;
16450;SDS011;12243;42.708;23.310;2023-01-15T12:35:31;11.20;;;8.90;;
16450;SDS011;12243;42.708;23.310;2023-01-15T12:38:02;9.47;;;8.17;;
16450;SDS011;12243;42.708;23.310;2023-01-15T12:40:38;9.20;;;8.30;;
16450;SDS011;12243;42.708;23.310;2023-01-15T12:43:13;9.73;;;8.33;;
16450;SDS011;12243;42.708;23.310;2023-01-15T12:46:02;9.67;;;7.97;;
16450;SDS011;12243;42.708;23.310;2023-01-15T12:48:33;9.10;;;8.10;;
16450;SDS011;12243;42.708;23.310;2023-01-15T12:51:07;9.93;;;8.70;;
16450;SDS011;12243;42.708;23.310;2023-01-15T12:53:41;10.90;;;8.77;;
16450;SDS011;12243;42.708;23.310;2023-01-15T12:56:11;13.33;;;9.47;;
16450;SDS011;12243;42.708;23.310;2023-01-15T12:58:46;9.70;;;8.20;;
16450;SDS011;12243;42.708;23.310;2023-01-15T13:01:18;12.57;;;9.40;;
16450;SDS011;12243;42.708;23.310;2023-01-15T13:03:59;11.70;;;9.27;;
16450;SDS011;12243;42.708;23.310;2023-01-15T13:06:37;11.73;;;9.27;;
16450;SDS011;12243;42.708;23.310;2023-01-15T13:09:08;10.53;;;8.50;;
16450;SDS011;12243;42.708;23.310;2023-01-15T13:11:42;10.07;;;9.00;;
16450;SDS011;12243;42.708;23.310;2023-01-15T13:14:13;14.80;;;10.10;;
16450;SDS011;12243;42.708;23.310;2023-01-15T13:16:42;10.97;;;9.37;;
16450;SDS011;12243;42.708;23.310;2023-01-15T13:19:22;12.77;;;9.47;;
16450;SDS011;12243;42.708;23.310;2023-01-15T13:22:02;21.57;;;14.00;;
16450;SDS011;12243;42.708;23.310;2023-01-15T13:27:46;13.63;;;10.87;;
16450;SDS011;12243;42.708;23.310;2023-01-15T13:33:22;10.53;;;9.33;;
16450;SDS011;12243;42.708;23.310;2023-01-15T13:35:53;11.20;;;9.30;;
16450;SDS011;12243;42.708;23.310;2023-01-15T13:38:28;16.70;;;10.63;;
16450;SDS011;12243;42.708;23.310;2023-01-15T13:41:04;32.23;;;18.73;;
16450;SDS011;12243;42.708;23.310;2023-01-15T13:43:34;17.93;;;13.20;;
16450;SDS011;12243;42.708;23.310;2023-01-15T13:46:05;14.30;;;10.87;;
16450;SDS011;12243;42.708;23.310;2023-01-15T13:48:36;10.60;;;9.40;;
16450;SDS011;12243;42.708;23.310;2023-01-15T13:51:16;12.83;;;10.60;;
16450;SDS011;12243;42.708;23.310;2023-01-15T13:53:52;11.30;;;9.47;;
16450;SDS011;12243;42.708;23.310;2023-01-15T13:56:26;16.00;;;10.23;;
16450;SDS011;12243;42.708;23.310;2023-01-15T13:58:56;11.43;;;9.30;;
16450;SDS011;12243;42.708;23.310;2023-01-15T14:01:30;13.00;;;10.50;;
16450;SDS011;12243;42.708;23.310;2023-01-15T14:04:00;14.87;;;11.60;;
16450;SDS011;12243;42.708;23.310;2023-01-15T14:06:39;15.17;;;11.03;;
16450;SDS011;12243;42.708;23.310;2023-01-15T14:09:12;10.70;;;9.03;;
16450;SDS011;12243;42.708;23.310;2023-01-15T14:11:44;11.03;;;9.10;;
16450;SDS011;12243;42.708;23.310;2023-01-15T14:17:33;10.27;;;8.23;;
16450;SDS011;12243;42.708;23.310;2023-01-15T14:23:38;13.83;;;9.93;;
16450;SDS011;12243;42.708;23.310;2023-01-15T14:26:26;12.90;;;9.43;;
16450;SDS011;12243;42.708;23.310;2023-01-15T14:29:02;10.27;;;9.20;;
16450;SDS011;12243;42.708;23.310;2023-01-15T14:31:44;12.10;;;9.27;;
16450;SDS011;12243;42.708;23.310;2023-01-15T14:34:19;12.80;;;9.93;;
16450;SDS011;12243;42.708;23.310;2023-01-15T14:36:51;13.90;;;10.87;;
16450;SDS011;12243;42.708;23.310;2023-01-15T14:39:24;17.47;;;10.27;;
16450;SDS011;12243;42.708;23.310;2023-01-15T14:41:55;14.37;;;11.67;;
16450;SDS011;12243;42.708;23.310;2023-01-15T14:44:45;13.93;;;10.93;;
16450;SDS011;12243;42.708;23.310;2023-01-15T14:47:22;14.93;;;11.67;;
16450;SDS011;12243;42.708;23.310;2023-01-15T14:50:17;16.30;;;12.37;;
16450;SDS011;12243;42.708;23.310;2023-01-15T14:52:49;19.37;;;12.53;;
16450;SDS011;12243;42.708;23.310;2023-01-15T14:55:17;18.83;;;12.90;;
16450;SDS011;12243;42.708;23.310;2023-01-15T14:57:47;17.13;;;11.17;;
16450;SDS011;12243;42.708;23.310;2023-01-15T15:00:21;16.00;;;11.73;;